createdAt,value
2022-10-22T00:01:12.882Z,5.20
2022-10-22T00:03:41.801Z,5.00
2022-10-22T00:06:09.859Z,4.90
2022-10-22T00:08:37.972Z,4.90
2022-10-22T00:11:24.435Z,4.50
2022-10-22T00:13:52.591Z,4.60
2022-10-22T00:16:20.580Z,4.60
2022-10-22T00:18:48.755Z,4.70
2022-10-22T00:21:16.725Z,4.90
2022-10-22T00:23:44.692Z,5.00
2022-10-22T00:26:13.435Z,5.00
2022-10-22T00:28:41.554Z,4.60
2022-10-22T00:31:10.125Z,4.80
2022-10-22T00:33:38.416Z,4.90
2022-10-22T00:36:07.164Z,5.30
2022-10-22T00:38:35.174Z,4.90
2022-10-22T00:41:03.082Z,4.90
2022-10-22T00:43:31.110Z,5.40
2022-10-22T00:45:59.080Z,5.00
2022-10-22T00:48:31.234Z,5.20
2022-10-22T00:51:07.945Z,5.10
2022-10-22T00:53:49.122Z,4.80
2022-10-22T00:56:17.796Z,4.90
2022-10-22T00:58:51.824Z,4.70
2022-10-22T01:01:30.642Z,4.70
2022-10-22T01:04:00.434Z,5.00
2022-10-22T01:06:34.354Z,5.20
2022-10-22T01:09:36.720Z,4.90
2022-10-22T01:12:45.242Z,5.20
2022-10-22T01:15:46.205Z,4.90
2022-10-22T01:18:58.493Z,5.10
2022-10-22T01:21:38.236Z,5.10
2022-10-22T01:24:33.880Z,4.90
2022-10-22T01:27:13.622Z,4.90
2022-10-22T01:29:53.569Z,5.20
2022-10-22T01:32:26.137Z,5.10
2022-10-22T01:35:09.431Z,5.30
2022-10-22T01:37:50.737Z,5.10
2022-10-22T01:40:21.055Z,5.20
2022-10-22T01:43:15.476Z,5.10
2022-10-22T01:45:49.318Z,5.30
2022-10-22T01:48:36.008Z,5.50
2022-10-22T01:51:25.651Z,5.00
2022-10-22T01:54:29.766Z,5.30
2022-10-22T01:57:32.243Z,4.80
2022-10-22T02:00:08.550Z,5.00
2022-10-22T02:03:08.018Z,4.90
2022-10-22T02:06:02.080Z,5.20
2022-10-22T02:08:35.543Z,5.70
2022-10-22T02:11:05.708Z,5.00
2022-10-22T02:13:59.804Z,5.00
2022-10-22T02:16:36.066Z,5.50
2022-10-22T02:19:23.126Z,4.90
2022-10-22T02:21:52.320Z,5.00
2022-10-22T02:24:22.747Z,5.50
2022-10-22T02:27:29.993Z,4.80
2022-10-22T02:30:20.166Z,4.80
2022-10-22T02:33:33.256Z,5.00
2022-10-22T02:36:03.418Z,4.80
2022-10-22T02:38:34.684Z,5.00
2022-10-22T02:41:03.870Z,4.80
2022-10-22T02:43:43.048Z,5.10
2022-10-22T02:46:11.912Z,5.00
2022-10-22T02:48:39.937Z,5.10
2022-10-22T02:51:08.060Z,5.00
2022-10-22T02:53:36.014Z,5.00
2022-10-22T02:56:04.901Z,4.70
2022-10-22T02:58:32.975Z,5.20
2022-10-22T03:01:01.094Z,4.90
2022-10-22T03:03:29.536Z,5.40
2022-10-22T03:05:57.396Z,4.80
2022-10-22T03:08:25.569Z,4.70
2022-10-22T03:10:53.432Z,5.20
2022-10-22T03:13:21.592Z,5.10
2022-10-22T03:15:51.343Z,4.70
2022-10-22T03:18:19.292Z,4.70
2022-10-22T03:20:47.567Z,4.80
2022-10-22T03:23:19.935Z,4.90
2022-10-22T03:25:49.863Z,4.60
2022-10-22T03:28:19.043Z,5.00
2022-10-22T03:30:46.873Z,5.10
2022-10-22T03:33:14.831Z,4.80
2022-10-22T03:35:47.315Z,4.90
2022-10-22T03:38:16.199Z,4.70
2022-10-22T03:40:46.266Z,4.90
2022-10-22T03:43:14.706Z,4.80
2022-10-22T03:45:42.730Z,4.60
2022-10-22T03:48:10.946Z,4.50
2022-10-22T03:50:38.804Z,4.40
2022-10-22T03:53:08.723Z,4.70
2022-10-22T03:55:38.421Z,5.00
2022-10-22T03:58:06.363Z,4.60
2022-10-22T04:00:36.757Z,4.50
2022-10-22T04:03:05.065Z,4.50
2022-10-22T04:05:34.160Z,4.40
2022-10-22T04:08:02.669Z,4.60
2022-10-22T04:10:30.505Z,4.70
2022-10-22T04:12:58.397Z,4.50
2022-10-22T04:15:28.254Z,4.40
2022-10-22T04:17:56.412Z,4.80
2022-10-22T04:20:24.435Z,4.30
2022-10-22T04:22:52.623Z,4.50
2022-10-22T04:25:20.579Z,4.40
2022-10-22T04:27:48.450Z,4.50
2022-10-22T04:30:16.517Z,4.30
2022-10-22T04:32:44.449Z,4.40
2022-10-22T04:35:12.475Z,4.40
2022-10-22T04:37:40.565Z,4.60
2022-10-22T04:40:10.110Z,4.20
2022-10-22T04:42:37.916Z,4.40
2022-10-22T04:45:07.015Z,4.10
2022-10-22T04:47:34.827Z,4.20
2022-10-22T04:50:03.920Z,4.30
2022-10-22T04:52:32.441Z,4.00
2022-10-22T04:55:00.246Z,4.30
2022-10-22T04:57:31.759Z,4.40
2022-10-22T04:59:59.637Z,3.90
2022-10-22T05:02:27.700Z,4.10
2022-10-22T05:04:55.553Z,4.10
2022-10-22T05:07:25.115Z,4.10
2022-10-22T05:09:54.160Z,4.10
2022-10-22T05:12:22.139Z,4.00
2022-10-22T05:14:50.054Z,3.90
2022-10-22T05:17:17.970Z,4.10
2022-10-22T05:19:45.839Z,4.10
2022-10-22T05:22:13.769Z,4.00
2022-10-22T05:24:41.877Z,4.00
2022-10-22T05:27:09.819Z,4.30
2022-10-22T05:29:38.027Z,3.60
2022-10-22T05:32:05.991Z,3.90
2022-10-22T05:34:36.223Z,4.00
2022-10-22T05:37:04.325Z,3.90
2022-10-22T05:39:32.255Z,4.10
2022-10-22T05:42:00.035Z,3.90
2022-10-22T05:44:27.988Z,4.00
2022-10-22T05:46:55.890Z,4.00
2022-10-22T05:49:23.678Z,4.00
2022-10-22T05:51:51.644Z,4.00
2022-10-22T05:54:22.440Z,4.10
2022-10-22T05:56:50.597Z,4.10
2022-10-22T05:59:18.880Z,4.20
2022-10-22T06:01:46.876Z,4.40
2022-10-22T06:04:16.356Z,4.50
2022-10-22T06:06:47.928Z,4.40
2022-10-22T06:12:12.366Z,4.20
2022-10-22T06:14:40.566Z,4.10
2022-10-22T06:17:09.585Z,4.10
2022-10-22T06:19:37.862Z,3.80
2022-10-22T06:22:05.932Z,3.90
2022-10-22T06:24:34.104Z,4.10
2022-10-22T06:27:02.394Z,4.40
2022-10-22T06:29:30.251Z,4.10
2022-10-22T06:31:58.173Z,3.90
2022-10-22T06:34:26.290Z,4.40
2022-10-22T06:36:54.259Z,4.10
2022-10-22T06:39:22.133Z,3.90
2022-10-22T06:41:49.992Z,4.10
2022-10-22T06:44:20.162Z,4.40
2022-10-22T06:46:53.101Z,3.70
2022-10-22T06:49:21.921Z,4.20
2022-10-22T06:51:54.697Z,4.50
2022-10-22T06:54:23.871Z,4.00
2022-10-22T06:56:51.748Z,4.30
2022-10-22T06:59:20.200Z,4.20
2022-10-22T07:01:48.436Z,4.80
2022-10-22T07:04:16.568Z,5.00
2022-10-22T07:06:44.538Z,4.60
2022-10-22T07:09:12.575Z,4.30
2022-10-22T07:11:44.709Z,4.40
2022-10-22T07:14:14.496Z,5.00
2022-10-22T07:16:43.294Z,4.90
2022-10-22T07:19:12.796Z,4.90
2022-10-22T07:21:41.262Z,4.90
2022-10-22T07:24:09.331Z,5.10
2022-10-22T07:26:37.508Z,5.20
2022-10-22T07:29:06.289Z,5.20
2022-10-22T07:31:34.573Z,5.20
2022-10-22T07:34:02.663Z,5.20
2022-10-22T07:36:30.615Z,5.60
2022-10-22T07:39:00.397Z,6.00
2022-10-22T07:41:31.264Z,6.40
2022-10-22T07:43:59.747Z,6.60
2022-10-22T07:46:28.435Z,7.00
2022-10-22T07:48:56.601Z,7.00
2022-10-22T07:51:24.885Z,7.10
2022-10-22T07:53:52.853Z,7.20
2022-10-22T07:56:21.720Z,7.60
2022-10-22T07:58:49.641Z,8.50
2022-10-22T08:01:17.835Z,8.70
2022-10-22T08:03:45.990Z,8.00
2022-10-22T08:06:15.055Z,8.80
2022-10-22T08:08:49.635Z,9.10
2022-10-22T08:11:17.541Z,8.40
2022-10-22T08:13:45.914Z,8.70
2022-10-22T08:16:15.031Z,8.10
2022-10-22T08:18:43.058Z,8.90
2022-10-22T08:21:13.111Z,8.00
2022-10-22T08:23:41.589Z,8.00
2022-10-22T08:26:11.119Z,7.90
2022-10-22T08:28:39.286Z,8.00
2022-10-22T08:31:08.993Z,8.10
2022-10-22T08:33:39.069Z,8.00
2022-10-22T08:36:08.227Z,7.80
2022-10-22T08:38:36.370Z,7.70
2022-10-22T08:41:18.946Z,7.80
2022-10-22T08:44:11.635Z,7.50
2022-10-22T08:46:42.259Z,7.80
2022-10-22T08:49:25.043Z,7.90
2022-10-22T08:51:53.877Z,8.00
2022-10-22T08:54:58.990Z,7.60
2022-10-22T08:57:54.122Z,8.60
2022-10-22T09:00:33.147Z,8.70
2022-10-22T09:03:22.630Z,8.30
2022-10-22T09:06:11.481Z,8.40
2022-10-22T09:08:43.410Z,8.70
2022-10-22T09:11:18.559Z,9.50
2022-10-22T09:13:48.569Z,10.50
2022-10-22T09:16:36.879Z,10.60
2022-10-22T09:19:36.454Z,10.10
2022-10-22T09:22:18.660Z,10.10
2022-10-22T09:25:16.381Z,10.20
2022-10-22T09:27:44.587Z,10.20
2022-10-22T09:30:22.915Z,9.40
2022-10-22T09:33:16.266Z,9.90
2022-10-22T09:35:55.660Z,11.00
2022-10-22T09:38:52.589Z,10.60
2022-10-22T09:41:26.126Z,11.10
2022-10-22T09:43:54.186Z,11.00
2022-10-22T09:46:28.223Z,10.90
2022-10-22T09:49:03.182Z,11.20
2022-10-22T09:51:53.471Z,11.40
2022-10-22T09:54:33.733Z,11.20
2022-10-22T09:57:16.768Z,11.60
2022-10-22T09:59:50.049Z,10.30
2022-10-22T10:02:37.636Z,10.60
2022-10-22T10:05:09.299Z,10.20
2022-10-22T10:07:37.578Z,10.20
2022-10-22T10:10:33.780Z,10.20
2022-10-22T10:13:28.641Z,9.20
2022-10-22T10:16:38.201Z,9.40
2022-10-22T10:19:44.861Z,9.40
2022-10-22T10:22:39.682Z,9.10
2022-10-22T10:25:41.415Z,9.10
2022-10-22T10:28:38.690Z,9.50
2022-10-22T10:31:26.296Z,9.00
2022-10-22T10:34:12.916Z,8.90
2022-10-22T10:37:16.232Z,9.00
2022-10-22T10:40:28.522Z,8.50
2022-10-22T10:43:45.299Z,8.40
2022-10-22T10:46:46.114Z,8.80
2022-10-22T10:49:26.418Z,8.30
2022-10-22T10:52:22.288Z,8.70
2022-10-22T10:55:20.802Z,9.30
2022-10-22T10:58:48.926Z,8.90
2022-10-22T11:01:51.343Z,8.80
2022-10-22T11:04:47.785Z,8.20
2022-10-22T11:07:34.256Z,8.80
2022-10-22T11:10:24.093Z,8.70
2022-10-22T11:12:59.121Z,8.60
2022-10-22T11:15:39.414Z,8.90
2022-10-22T11:18:42.131Z,8.50
2022-10-22T11:21:12.609Z,8.50
2022-10-22T11:24:13.263Z,8.70
2022-10-22T11:26:56.834Z,8.70
2022-10-22T11:29:33.881Z,8.10
2022-10-22T11:32:03.914Z,8.10
2022-10-22T11:34:42.503Z,7.90
2022-10-22T11:37:12.684Z,8.50
2022-10-22T11:39:40.811Z,8.00
2022-10-22T11:42:22.398Z,8.10
2022-10-22T11:45:06.248Z,7.60
2022-10-22T11:47:56.955Z,8.30
2022-10-22T11:51:01.220Z,8.00
2022-10-22T11:53:37.339Z,7.70
2022-10-22T11:56:10.024Z,8.20
2022-10-22T11:58:39.563Z,8.30
2022-10-22T12:01:07.767Z,8.10
2022-10-22T12:03:38.117Z,7.40
2022-10-22T12:06:11.845Z,7.60
2022-10-22T12:08:58.471Z,7.90
2022-10-22T12:11:53.325Z,7.70
2022-10-22T12:14:35.445Z,7.20
2022-10-22T12:17:13.892Z,8.20
2022-10-22T12:19:50.223Z,7.50
2022-10-22T12:22:26.469Z,7.20
2022-10-22T12:25:00.837Z,7.50
2022-10-22T12:27:37.233Z,7.30
2022-10-22T12:30:35.072Z,6.90
2022-10-22T12:33:08.250Z,7.20
2022-10-22T12:35:45.317Z,8.20
2022-10-22T12:38:20.579Z,7.30
2022-10-22T12:40:51.115Z,8.30
2022-10-22T12:43:27.297Z,7.60
2022-10-22T12:45:57.877Z,7.60
2022-10-22T12:48:34.498Z,7.80
2022-10-22T12:51:08.250Z,8.70
2022-10-22T12:53:45.763Z,7.70
2022-10-22T12:56:21.997Z,7.60
2022-10-22T12:58:59.239Z,7.80
2022-10-22T13:01:32.447Z,7.90
2022-10-22T13:04:14.886Z,7.50
2022-10-22T13:07:12.347Z,7.20
2022-10-22T13:09:55.654Z,7.80
2022-10-22T13:12:37.400Z,8.00
2022-10-22T13:15:39.902Z,7.30
2022-10-22T13:18:21.135Z,7.30
2022-10-22T13:21:01.956Z,7.20
2022-10-22T13:23:34.080Z,7.40
2022-10-22T13:26:16.922Z,6.90
2022-10-22T13:28:54.298Z,7.50
2022-10-22T13:31:38.011Z,7.40
2022-10-22T13:34:11.900Z,7.60
2022-10-22T13:36:42.247Z,7.10
2022-10-22T13:39:19.563Z,7.00
2022-10-22T13:41:50.482Z,7.60
2022-10-22T13:44:19.923Z,7.20
2022-10-22T13:46:49.180Z,6.90
2022-10-22T13:49:23.551Z,7.70
2022-10-22T13:51:51.877Z,6.80
2022-10-22T13:54:23.844Z,7.50
2022-10-22T13:56:53.740Z,7.20
2022-10-22T13:59:23.788Z,7.10
2022-10-22T14:01:53.277Z,7.60
2022-10-22T14:04:21.262Z,7.00
2022-10-22T14:06:49.202Z,7.00
2022-10-22T14:09:22.421Z,6.40
2022-10-22T14:11:50.334Z,6.90
2022-10-22T14:14:19.065Z,7.30
2022-10-22T14:16:47.033Z,6.60
2022-10-22T14:19:18.181Z,7.20
2022-10-22T14:21:49.208Z,7.10
2022-10-22T14:24:17.298Z,6.90
2022-10-22T14:26:46.690Z,6.90
2022-10-22T14:29:14.626Z,6.90
2022-10-22T14:31:44.826Z,7.30
2022-10-22T14:34:16.143Z,6.80
2022-10-22T14:36:44.603Z,6.50
2022-10-22T14:39:14.043Z,7.00
2022-10-22T14:41:43.557Z,7.20
2022-10-22T14:44:14.484Z,6.70
2022-10-22T14:46:44.710Z,6.80
2022-10-22T14:49:13.645Z,6.00
2022-10-22T14:51:42.360Z,6.40
2022-10-22T14:54:10.499Z,5.80
2022-10-22T14:56:39.028Z,6.10
2022-10-22T14:59:07.297Z,6.30
2022-10-22T15:01:35.779Z,6.10
2022-10-22T15:04:04.156Z,6.10
2022-10-22T15:06:32.553Z,5.50
2022-10-22T15:09:00.532Z,6.10
2022-10-22T15:11:28.892Z,6.00
2022-10-22T15:13:57.264Z,5.80
2022-10-22T15:16:26.577Z,5.70
2022-10-22T15:18:54.850Z,5.80
2022-10-22T15:21:23.943Z,5.60
2022-10-22T15:23:52.414Z,5.50
2022-10-22T15:26:20.393Z,5.40
2022-10-22T15:28:48.250Z,5.40
2022-10-22T15:31:16.206Z,5.30
2022-10-22T15:33:44.787Z,5.50
2022-10-22T15:36:17.117Z,5.20
2022-10-22T15:38:44.998Z,5.30
2022-10-22T15:41:13.617Z,5.00
2022-10-22T15:43:42.332Z,5.10
2022-10-22T15:46:18.999Z,5.10
2022-10-22T15:48:47.368Z,5.30
2022-10-22T15:51:19.202Z,5.30
2022-10-22T15:53:58.833Z,6.10
2022-10-22T15:56:29.804Z,6.80
2022-10-22T15:59:04.170Z,7.50
2022-10-22T16:01:34.289Z,7.60
2022-10-22T16:04:03.000Z,9.00
2022-10-22T16:06:34.833Z,9.10
2022-10-22T16:09:17.247Z,9.50
2022-10-22T16:11:46.022Z,9.20
2022-10-22T16:14:17.396Z,9.40
2022-10-22T16:16:50.188Z,9.20
2022-10-22T16:19:22.342Z,9.20
2022-10-22T16:21:53.238Z,9.20
2022-10-22T16:24:23.211Z,9.80
2022-10-22T16:26:53.418Z,9.30
2022-10-22T16:29:21.572Z,9.30
2022-10-22T16:31:50.597Z,9.90
2022-10-22T16:34:18.399Z,8.40
2022-10-22T16:36:46.610Z,8.40
2022-10-22T16:39:14.954Z,9.10
2022-10-22T16:41:43.131Z,8.90
2022-10-22T16:44:13.588Z,8.60
2022-10-22T16:46:41.816Z,8.80
2022-10-22T16:49:13.185Z,9.00
2022-10-22T16:51:41.159Z,9.50
2022-10-22T16:54:13.527Z,8.50
2022-10-22T16:56:42.121Z,8.40
2022-10-22T16:59:10.281Z,8.50
2022-10-22T17:01:41.273Z,7.90
2022-10-22T17:04:10.306Z,8.20
2022-10-22T17:06:38.999Z,7.90
2022-10-22T17:09:08.882Z,8.50
2022-10-22T17:11:40.166Z,8.50
2022-10-22T17:14:11.739Z,8.40
2022-10-22T17:16:39.854Z,8.40
2022-10-22T17:19:08.074Z,8.00
2022-10-22T17:21:36.066Z,8.10
2022-10-22T17:24:04.443Z,8.10
2022-10-22T17:26:34.771Z,7.80
2022-10-22T17:29:04.216Z,8.50
2022-10-22T17:31:37.553Z,8.20
2022-10-22T17:34:10.423Z,8.40
2022-10-22T17:36:38.598Z,8.20
2022-10-22T17:39:09.153Z,7.90
2022-10-22T17:41:37.869Z,7.60
2022-10-22T17:44:12.458Z,7.80
2022-10-22T17:46:41.026Z,8.60
2022-10-22T17:49:18.758Z,8.00
2022-10-22T17:51:47.677Z,8.10
2022-10-22T17:54:15.847Z,8.00
2022-10-22T17:56:44.578Z,8.00
2022-10-22T17:59:16.180Z,8.30
2022-10-22T18:01:48.845Z,7.90
2022-10-22T18:04:20.218Z,8.20
2022-10-22T18:06:49.154Z,8.10
2022-10-22T18:09:21.224Z,7.30
2022-10-22T18:11:52.152Z,7.20
2022-10-22T18:14:22.785Z,7.40
2022-10-22T18:16:52.195Z,7.90
2022-10-22T18:19:24.879Z,7.10
2022-10-22T18:21:53.554Z,7.20
2022-10-22T18:24:23.681Z,7.20
2022-10-22T18:26:52.518Z,6.70
2022-10-22T18:29:20.948Z,8.10
2022-10-22T18:31:49.943Z,7.60
2022-10-22T18:34:20.398Z,7.80
2022-10-22T18:36:51.522Z,7.50
2022-10-22T18:39:20.505Z,7.00
2022-10-22T18:41:48.800Z,6.80
2022-10-22T18:44:18.099Z,6.90
2022-10-22T18:46:46.056Z,6.20
2022-10-22T18:49:18.518Z,6.50
2022-10-22T18:51:52.603Z,6.60
2022-10-22T18:54:24.223Z,6.20
2022-10-22T18:57:00.573Z,6.10
2022-10-22T18:59:31.157Z,6.30
2022-10-22T19:01:59.841Z,5.90
2022-10-22T19:04:36.784Z,6.00
2022-10-22T19:07:05.974Z,5.90
2022-10-22T19:09:34.235Z,5.60
2022-10-22T19:12:02.507Z,6.10
2022-10-22T19:14:31.623Z,5.40
2022-10-22T19:16:59.473Z,5.30
2022-10-22T19:19:27.907Z,5.70
2022-10-22T19:21:56.854Z,5.30
2022-10-22T19:24:25.428Z,4.80
2022-10-22T19:26:54.016Z,5.30
2022-10-22T19:29:22.256Z,4.80
2022-10-22T19:31:53.501Z,5.00
2022-10-22T19:34:21.820Z,4.40
2022-10-22T19:36:51.928Z,4.80
2022-10-22T19:39:20.924Z,5.00
2022-10-22T19:41:49.100Z,4.70
2022-10-22T19:44:18.024Z,5.10
2022-10-22T19:46:45.965Z,5.00
2022-10-22T19:49:18.849Z,5.00
2022-10-22T19:51:50.398Z,4.60
2022-10-22T19:54:19.808Z,4.90
2022-10-22T19:56:48.427Z,4.50
2022-10-22T19:59:17.932Z,4.60
2022-10-22T20:01:46.170Z,4.40
2022-10-22T20:04:17.688Z,4.50
2022-10-22T20:06:45.999Z,4.30
2022-10-22T20:09:14.368Z,4.40
2022-10-22T20:11:44.099Z,4.30
2022-10-22T20:14:14.415Z,4.00
2022-10-22T20:16:43.241Z,4.30
2022-10-22T20:19:16.400Z,4.10
2022-10-22T20:21:49.086Z,3.90
2022-10-22T20:24:17.192Z,4.10
2022-10-22T20:26:47.265Z,4.30
2022-10-22T20:29:16.459Z,4.20
2022-10-22T20:31:45.048Z,4.40
2022-10-22T20:34:13.840Z,4.10
2022-10-22T20:36:41.906Z,3.90
2022-10-22T20:39:15.176Z,4.10
2022-10-22T20:41:43.307Z,3.90
2022-10-22T20:44:18.284Z,3.80
2022-10-22T20:46:46.441Z,3.90
2022-10-22T20:49:17.470Z,4.10
2022-10-22T20:51:45.532Z,3.90
2022-10-22T20:54:15.641Z,3.70
2022-10-22T20:56:45.533Z,4.10
2022-10-22T20:59:13.910Z,3.60
2022-10-22T21:01:47.908Z,3.70
2022-10-22T21:04:19.800Z,3.70
2022-10-22T21:06:50.028Z,3.80
2022-10-22T21:09:18.106Z,3.90
2022-10-22T21:11:47.409Z,3.90
2022-10-22T21:14:20.136Z,3.80
2022-10-22T21:16:51.201Z,3.50
2022-10-22T21:19:21.937Z,4.10
2022-10-22T21:21:50.209Z,4.10
2022-10-22T21:24:18.904Z,4.80
2022-10-22T21:26:47.482Z,4.70
2022-10-22T21:29:15.818Z,4.90
2022-10-22T21:31:44.970Z,4.90
2022-10-22T21:34:15.026Z,5.30
2022-10-22T21:36:44.994Z,5.40
2022-10-22T21:39:14.089Z,5.50
2022-10-22T21:41:44.001Z,5.30
2022-10-22T21:44:12.688Z,5.30
2022-10-22T21:46:40.950Z,5.50
2022-10-22T21:49:09.764Z,5.40
2022-10-22T21:51:38.849Z,5.40
2022-10-22T21:54:07.555Z,5.00
2022-10-22T21:56:37.307Z,5.40
2022-10-22T21:59:08.149Z,5.30
2022-10-22T22:01:37.067Z,5.20
2022-10-22T22:04:06.677Z,5.20
2022-10-22T22:06:35.562Z,5.30
2022-10-22T22:09:05.813Z,4.90
2022-10-22T22:11:34.393Z,4.70
2022-10-22T22:14:04.436Z,5.10
2022-10-22T22:16:35.199Z,4.30
2022-10-22T22:19:11.811Z,4.60
2022-10-22T22:21:42.457Z,4.60
2022-10-22T22:24:13.299Z,4.40
2022-10-22T22:26:41.865Z,4.70
2022-10-22T22:29:11.258Z,4.30
2022-10-22T22:31:40.562Z,4.50
2022-10-22T22:34:15.515Z,4.40
2022-10-22T22:36:47.568Z,4.40
2022-10-22T22:39:21.894Z,4.30
2022-10-22T22:41:50.363Z,4.50
2022-10-22T22:44:18.848Z,4.30
2022-10-22T22:46:47.124Z,4.40
2022-10-22T22:49:16.021Z,4.10
2022-10-22T22:51:44.920Z,4.30
2022-10-22T22:54:13.111Z,4.00
2022-10-22T22:56:42.788Z,3.80
2022-10-22T22:59:12.413Z,4.10
2022-10-22T23:01:41.661Z,3.70
2022-10-22T23:04:25.749Z,4.00
2022-10-22T23:06:54.939Z,4.00
2022-10-22T23:09:23.012Z,3.80
2022-10-22T23:11:51.340Z,3.80
2022-10-22T23:14:20.661Z,3.80
2022-10-22T23:16:52.292Z,4.10
2022-10-22T23:19:22.925Z,4.20
2022-10-22T23:21:54.727Z,3.90
2022-10-22T23:24:29.049Z,4.00
2022-10-22T23:27:03.905Z,4.00
2022-10-22T23:29:36.511Z,4.60
2022-10-22T23:32:12.070Z,4.40
2022-10-22T23:34:40.414Z,4.20
2022-10-22T23:37:12.009Z,4.40
2022-10-22T23:39:39.922Z,4.10
2022-10-22T23:42:07.880Z,4.60
2022-10-22T23:44:35.798Z,4.50
2022-10-22T23:47:03.825Z,4.40
2022-10-22T23:49:31.889Z,4.30
2022-10-22T23:51:59.759Z,4.50
2022-10-22T23:54:27.729Z,4.30
2022-10-22T23:56:55.558Z,5.10
2022-10-22T23:59:23.768Z,4.60
